sensor_id;sensor_type;location;lat;lon;timestamp;P1;durP1;ratioP1;P2;durP2;ratioP2
3911;SDS011;1971;51.778;10.330;2023-08-31T00:00:55;10.27;;;9.37;;
3911;SDS011;1971;51.778;10.330;2023-08-31T00:03:31;10.80;;;9.90;;
3911;SDS011;1971;51.778;10.330;2023-08-31T00:06:01;29.13;;;12.40;;
3911;SDS011;1971;51.778;10.330;2023-08-31T00:08:36;11.00;;;10.10;;
3911;SDS011;1971;51.778;10.330;2023-08-31T00:11:07;11.57;;;10.60;;
3911;SDS011;1971;51.778;10.330;2023-08-31T00:13:37;10.67;;;9.77;;
3911;SDS011;1971;51.778;10.330;2023-08-31T00:16:07;11.00;;;10.00;;
3911;SDS011;1971;51.778;10.330;2023-08-31T00:18:40;11.53;;;10.53;;
3911;SDS011;1971;51.778;10.330;2023-08-31T00:21:11;10.53;;;9.73;;
3911;SDS011;1971;51.778;10.330;2023-08-31T00:23:44;11.13;;;10.33;;
3911;SDS011;1971;51.778;10.330;2023-08-31T00:26:15;9.57;;;8.77;;
3911;SDS011;1971;51.778;10.330;2023-08-31T00:28:47;10.93;;;10.03;;
3911;SDS011;1971;51.778;10.330;2023-08-31T00:31:17;10.00;;;9.10;;
3911;SDS011;1971;51.778;10.330;2023-08-31T00:33:48;9.33;;;8.53;;
3911;SDS011;1971;51.778;10.330;2023-08-31T00:36:18;11.73;;;10.80;;
3911;SDS011;1971;51.778;10.330;2023-08-31T00:38:52;9.97;;;9.07;;
3911;SDS011;1971;51.778;10.330;2023-08-31T00:41:22;8.60;;;7.90;;
3911;SDS011;1971;51.778;10.330;2023-08-31T00:43:52;10.30;;;9.50;;
3911;SDS011;1971;51.778;10.330;2023-08-31T00:46:23;10.03;;;9.03;;
3911;SDS011;1971;51.778;10.330;2023-08-31T00:48:54;11.10;;;10.17;;
3911;SDS011;1971;51.778;10.330;2023-08-31T00:51:25;10.27;;;9.37;;
3911;SDS011;1971;51.778;10.330;2023-08-31T00:53:58;10.07;;;9.27;;
3911;SDS011;1971;51.778;10.330;2023-08-31T00:56:32;10.70;;;9.80;;
3911;SDS011;1971;51.778;10.330;2023-08-31T00:59:02;11.50;;;10.70;;
3911;SDS011;1971;51.778;10.330;2023-08-31T01:01:34;14.67;;;10.20;;
3911;SDS011;1971;51.778;10.330;2023-08-31T01:04:13;11.40;;;10.40;;
3911;SDS011;1971;51.778;10.330;2023-08-31T01:06:51;24.70;;;12.57;;
3911;SDS011;1971;51.778;10.330;2023-08-31T01:09:31;284.27;;;34.13;;
3911;SDS011;1971;51.778;10.330;2023-08-31T01:12:07;13.33;;;12.03;;
3911;SDS011;1971;51.778;10.330;2023-08-31T01:14:42;13.40;;;12.33;;
3911;SDS011;1971;51.778;10.330;2023-08-31T01:17:18;12.70;;;11.60;;
3911;SDS011;1971;51.778;10.330;2023-08-31T01:19:51;13.13;;;12.03;;
3911;SDS011;1971;51.778;10.330;2023-08-31T01:22:25;14.10;;;12.80;;
3911;SDS011;1971;51.778;10.330;2023-08-31T01:25:04;13.97;;;12.70;;
3911;SDS011;1971;51.778;10.330;2023-08-31T01:27:36;14.13;;;12.93;;
3911;SDS011;1971;51.778;10.330;2023-08-31T01:30:07;12.57;;;11.57;;
3911;SDS011;1971;51.778;10.330;2023-08-31T01:32:41;13.17;;;12.07;;
3911;SDS011;1971;51.778;10.330;2023-08-31T01:35:14;13.27;;;11.93;;
3911;SDS011;1971;51.778;10.330;2023-08-31T01:37:49;12.37;;;11.37;;
3911;SDS011;1971;51.778;10.330;2023-08-31T01:40:37;11.67;;;10.53;;
3911;SDS011;1971;51.778;10.330;2023-08-31T01:43:12;11.80;;;10.73;;
3911;SDS011;1971;51.778;10.330;2023-08-31T01:45:44;11.63;;;10.73;;
3911;SDS011;1971;51.778;10.330;2023-08-31T01:48:16;11.60;;;10.70;;
3911;SDS011;1971;51.778;10.330;2023-08-31T01:50:47;12.43;;;11.43;;
3911;SDS011;1971;51.778;10.330;2023-08-31T01:53:18;12.27;;;11.17;;
3911;SDS011;1971;51.778;10.330;2023-08-31T01:55:52;12.23;;;11.33;;
3911;SDS011;1971;51.778;10.330;2023-08-31T01:58:22;12.10;;;11.20;;
3911;SDS011;1971;51.778;10.330;2023-08-31T02:00:52;12.97;;;11.70;;
3911;SDS011;1971;51.778;10.330;2023-08-31T02:03:23;14.90;;;13.50;;
3911;SDS011;1971;51.778;10.330;2023-08-31T02:05:54;13.23;;;11.93;;
3911;SDS011;1971;51.778;10.330;2023-08-31T02:08:24;13.33;;;12.13;;
3911;SDS011;1971;51.778;10.330;2023-08-31T02:10:57;13.37;;;12.37;;
3911;SDS011;1971;51.778;10.330;2023-08-31T02:13:27;14.43;;;13.00;;
3911;SDS011;1971;51.778;10.330;2023-08-31T02:15:57;14.70;;;13.50;;
3911;SDS011;1971;51.778;10.330;2023-08-31T02:18:28;15.37;;;13.97;;
3911;SDS011;1971;51.778;10.330;2023-08-31T02:21:00;81.77;;;21.07;;
3911;SDS011;1971;51.778;10.330;2023-08-31T02:23:30;34.93;;;15.70;;
3911;SDS011;1971;51.778;10.330;2023-08-31T02:26:03;17.10;;;15.50;;
3911;SDS011;1971;51.778;10.330;2023-08-31T02:28:34;13.57;;;12.37;;
3911;SDS011;1971;51.778;10.330;2023-08-31T02:31:05;14.40;;;13.20;;
3911;SDS011;1971;51.778;10.330;2023-08-31T02:33:40;15.70;;;14.30;;
3911;SDS011;1971;51.778;10.330;2023-08-31T02:36:12;14.90;;;13.73;;
3911;SDS011;1971;51.778;10.330;2023-08-31T02:38:43;30.83;;;15.50;;
3911;SDS011;1971;51.778;10.330;2023-08-31T02:41:16;15.97;;;14.50;;
3911;SDS011;1971;51.778;10.330;2023-08-31T02:43:46;13.03;;;12.00;;
3911;SDS011;1971;51.778;10.330;2023-08-31T02:46:19;14.33;;;13.10;;
3911;SDS011;1971;51.778;10.330;2023-08-31T02:48:50;12.97;;;11.87;;
3911;SDS011;1971;51.778;10.330;2023-08-31T02:51:23;16.50;;;13.97;;
3911;SDS011;1971;51.778;10.330;2023-08-31T02:53:53;15.23;;;13.73;;
3911;SDS011;1971;51.778;10.330;2023-08-31T02:56:26;29.07;;;17.20;;
3911;SDS011;1971;51.778;10.330;2023-08-31T02:58:57;17.07;;;15.40;;
3911;SDS011;1971;51.778;10.330;2023-08-31T03:01:27;23.47;;;15.97;;
3911;SDS011;1971;51.778;10.330;2023-08-31T03:04:00;16.30;;;14.83;;
3911;SDS011;1971;51.778;10.330;2023-08-31T03:06:31;17.20;;;14.80;;
3911;SDS011;1971;51.778;10.330;2023-08-31T03:09:02;15.50;;;14.10;;
3911;SDS011;1971;51.778;10.330;2023-08-31T03:11:46;16.47;;;14.63;;
3911;SDS011;1971;51.778;10.330;2023-08-31T03:14:19;16.10;;;14.70;;
3911;SDS011;1971;51.778;10.330;2023-08-31T03:16:50;15.13;;;13.63;;
3911;SDS011;1971;51.778;10.330;2023-08-31T03:19:21;15.57;;;14.17;;
3911;SDS011;1971;51.778;10.330;2023-08-31T03:21:54;14.97;;;13.57;;
3911;SDS011;1971;51.778;10.330;2023-08-31T03:24:24;12.77;;;11.27;;
3911;SDS011;1971;51.778;10.330;2023-08-31T03:27:01;13.23;;;12.03;;
3911;SDS011;1971;51.778;10.330;2023-08-31T03:29:34;14.63;;;13.27;;
3911;SDS011;1971;51.778;10.330;2023-08-31T03:32:07;14.30;;;13.00;;
3911;SDS011;1971;51.778;10.330;2023-08-31T03:34:38;15.67;;;14.30;;
3911;SDS011;1971;51.778;10.330;2023-08-31T03:37:10;15.70;;;14.20;;
3911;SDS011;1971;51.778;10.330;2023-08-31T03:39:40;15.47;;;14.10;;
3911;SDS011;1971;51.778;10.330;2023-08-31T03:42:13;16.03;;;14.30;;
3911;SDS011;1971;51.778;10.330;2023-08-31T03:44:47;50.23;;;16.53;;
3911;SDS011;1971;51.778;10.330;2023-08-31T03:47:18;13.40;;;12.20;;
3911;SDS011;1971;51.778;10.330;2023-08-31T03:49:52;38.77;;;17.60;;
3911;SDS011;1971;51.778;10.330;2023-08-31T03:52:25;14.47;;;13.23;;
3911;SDS011;1971;51.778;10.330;2023-08-31T03:55:03;13.20;;;12.10;;
3911;SDS011;1971;51.778;10.330;2023-08-31T03:57:46;13.30;;;12.17;;
3911;SDS011;1971;51.778;10.330;2023-08-31T04:00:22;12.87;;;11.70;;
3911;SDS011;1971;51.778;10.330;2023-08-31T04:02:59;14.17;;;12.63;;
3911;SDS011;1971;51.778;10.330;2023-08-31T04:05:31;13.20;;;11.97;;
3911;SDS011;1971;51.778;10.330;2023-08-31T04:08:02;13.70;;;12.60;;
3911;SDS011;1971;51.778;10.330;2023-08-31T04:10:34;14.10;;;12.70;;
3911;SDS011;1971;51.778;10.330;2023-08-31T04:13:07;13.00;;;11.90;;
3911;SDS011;1971;51.778;10.330;2023-08-31T04:15:38;14.87;;;13.67;;
3911;SDS011;1971;51.778;10.330;2023-08-31T04:18:09;17.27;;;12.90;;
3911;SDS011;1971;51.778;10.330;2023-08-31T04:20:46;14.77;;;13.37;;
3911;SDS011;1971;51.778;10.330;2023-08-31T04:23:18;14.90;;;13.53;;
3911;SDS011;1971;51.778;10.330;2023-08-31T04:25:48;14.03;;;12.83;;
3911;SDS011;1971;51.778;10.330;2023-08-31T04:28:22;17.43;;;15.60;;
3911;SDS011;1971;51.778;10.330;2023-08-31T04:30:53;17.60;;;15.80;;
3911;SDS011;1971;51.778;10.330;2023-08-31T04:33:23;17.20;;;15.70;;
3911;SDS011;1971;51.778;10.330;2023-08-31T04:35:56;16.23;;;14.83;;
3911;SDS011;1971;51.778;10.330;2023-08-31T04:38:26;16.23;;;14.73;;
3911;SDS011;1971;51.778;10.330;2023-08-31T04:40:59;14.20;;;12.70;;
3911;SDS011;1971;51.778;10.330;2023-08-31T04:43:33;15.00;;;13.70;;
3911;SDS011;1971;51.778;10.330;2023-08-31T04:46:03;14.00;;;12.73;;
3911;SDS011;1971;51.778;10.330;2023-08-31T04:48:34;16.13;;;14.80;;
3911;SDS011;1971;51.778;10.330;2023-08-31T04:51:04;16.97;;;15.40;;
3911;SDS011;1971;51.778;10.330;2023-08-31T04:53:34;15.00;;;13.70;;
3911;SDS011;1971;51.778;10.330;2023-08-31T04:56:04;15.33;;;13.73;;
3911;SDS011;1971;51.778;10.330;2023-08-31T04:58:38;15.70;;;14.17;;
3911;SDS011;1971;51.778;10.330;2023-08-31T05:01:09;18.60;;;16.80;;
3911;SDS011;1971;51.778;10.330;2023-08-31T05:03:39;17.93;;;16.03;;
3911;SDS011;1971;51.778;10.330;2023-08-31T05:06:09;222.30;;;34.07;;
3911;SDS011;1971;51.778;10.330;2023-08-31T05:08:40;14.80;;;13.60;;
3911;SDS011;1971;51.778;10.330;2023-08-31T05:11:10;14.17;;;12.97;;
3911;SDS011;1971;51.778;10.330;2023-08-31T05:13:46;18.30;;;14.00;;
3911;SDS011;1971;51.778;10.330;2023-08-31T05:16:17;14.77;;;13.43;;
3911;SDS011;1971;51.778;10.330;2023-08-31T05:18:48;17.73;;;15.03;;
3911;SDS011;1971;51.778;10.330;2023-08-31T05:21:18;18.00;;;14.40;;
3911;SDS011;1971;51.778;10.330;2023-08-31T05:23:49;17.57;;;15.90;;
3911;SDS011;1971;51.778;10.330;2023-08-31T05:26:22;16.23;;;14.73;;
3911;SDS011;1971;51.778;10.330;2023-08-31T05:28:55;24.33;;;16.43;;
3911;SDS011;1971;51.778;10.330;2023-08-31T05:31:25;14.30;;;13.10;;
3911;SDS011;1971;51.778;10.330;2023-08-31T05:33:56;12.17;;;10.97;;
3911;SDS011;1971;51.778;10.330;2023-08-31T05:36:27;10.70;;;9.83;;
3911;SDS011;1971;51.778;10.330;2023-08-31T05:38:59;10.20;;;6.93;;
3911;SDS011;1971;51.778;10.330;2023-08-31T05:41:32;8.57;;;7.97;;
3911;SDS011;1971;51.778;10.330;2023-08-31T05:44:05;10.17;;;9.27;;
3911;SDS011;1971;51.778;10.330;2023-08-31T05:46:36;7.77;;;7.17;;
3911;SDS011;1971;51.778;10.330;2023-08-31T05:49:08;8.20;;;7.50;;
3911;SDS011;1971;51.778;10.330;2023-08-31T05:51:38;7.30;;;6.70;;
3911;SDS011;1971;51.778;10.330;2023-08-31T05:54:08;7.47;;;6.90;;
3911;SDS011;1971;51.778;10.330;2023-08-31T05:56:40;7.50;;;6.90;;
3911;SDS011;1971;51.778;10.330;2023-08-31T05:59:13;7.07;;;6.57;;
3911;SDS011;1971;51.778;10.330;2023-08-31T06:01:43;8.50;;;7.00;;
3911;SDS011;1971;51.778;10.330;2023-08-31T06:04:13;8.97;;;7.93;;
3911;SDS011;1971;51.778;10.330;2023-08-31T06:06:44;8.13;;;7.43;;
3911;SDS011;1971;51.778;10.330;2023-08-31T06:09:14;8.90;;;8.13;;
3911;SDS011;1971;51.778;10.330;2023-08-31T06:11:44;9.87;;;8.90;;
3911;SDS011;1971;51.778;10.330;2023-08-31T06:14:17;9.53;;;8.73;;
3911;SDS011;1971;51.778;10.330;2023-08-31T06:16:47;11.50;;;8.67;;
3911;SDS011;1971;51.778;10.330;2023-08-31T06:19:19;9.70;;;8.97;;
3911;SDS011;1971;51.778;10.330;2023-08-31T06:21:49;9.83;;;8.83;;
3911;SDS011;1971;51.778;10.330;2023-08-31T06:24:21;9.30;;;8.50;;
3911;SDS011;1971;51.778;10.330;2023-08-31T06:26:51;9.77;;;8.97;;
3911;SDS011;1971;51.778;10.330;2023-08-31T06:29:24;9.53;;;8.63;;
3911;SDS011;1971;51.778;10.330;2023-08-31T06:31:54;9.10;;;8.40;;
3911;SDS011;1971;51.778;10.330;2023-08-31T06:34:25;9.97;;;9.20;;
3911;SDS011;1971;51.778;10.330;2023-08-31T06:36:55;10.00;;;9.20;;
3911;SDS011;1971;51.778;10.330;2023-08-31T06:39:26;13.07;;;9.90;;
3911;SDS011;1971;51.778;10.330;2023-08-31T06:41:56;45.90;;;14.37;;
3911;SDS011;1971;51.778;10.330;2023-08-31T06:44:32;24.13;;;12.70;;
3911;SDS011;1971;51.778;10.330;2023-08-31T06:47:02;21.53;;;13.30;;
3911;SDS011;1971;51.778;10.330;2023-08-31T06:49:33;12.33;;;11.30;;
3911;SDS011;1971;51.778;10.330;2023-08-31T06:52:04;17.70;;;11.90;;
3911;SDS011;1971;51.778;10.330;2023-08-31T06:54:54;22.73;;;11.23;;
3911;SDS011;1971;51.778;10.330;2023-08-31T06:57:25;11.97;;;10.90;;
3911;SDS011;1971;51.778;10.330;2023-08-31T06:59:59;12.97;;;12.00;;
3911;SDS011;1971;51.778;10.330;2023-08-31T07:02:30;12.50;;;11.40;;
3911;SDS011;1971;51.778;10.330;2023-08-31T07:05:02;91.50;;;19.40;;
3911;SDS011;1971;51.778;10.330;2023-08-31T07:07:33;12.10;;;11.00;;
3911;SDS011;1971;51.778;10.330;2023-08-31T07:10:03;12.47;;;11.17;;
3911;SDS011;1971;51.778;10.330;2023-08-31T07:12:34;12.67;;;11.40;;
3911;SDS011;1971;51.778;10.330;2023-08-31T07:15:08;12.77;;;11.67;;
3911;SDS011;1971;51.778;10.330;2023-08-31T07:17:39;12.00;;;11.00;;
3911;SDS011;1971;51.778;10.330;2023-08-31T07:20:10;13.00;;;11.83;;
3911;SDS011;1971;51.778;10.330;2023-08-31T07:22:41;12.27;;;11.23;;
3911;SDS011;1971;51.778;10.330;2023-08-31T07:25:11;12.83;;;11.73;;
3911;SDS011;1971;51.778;10.330;2023-08-31T07:27:41;13.80;;;12.40;;
3911;SDS011;1971;51.778;10.330;2023-08-31T07:30:15;12.87;;;11.77;;
3911;SDS011;1971;51.778;10.330;2023-08-31T07:32:45;14.20;;;13.00;;
3911;SDS011;1971;51.778;10.330;2023-08-31T07:35:16;14.43;;;13.23;;
3911;SDS011;1971;51.778;10.330;2023-08-31T07:37:46;14.60;;;13.13;;
3911;SDS011;1971;51.778;10.330;2023-08-31T07:40:17;12.87;;;11.77;;
3911;SDS011;1971;51.778;10.330;2023-08-31T07:42:47;12.60;;;11.43;;
3911;SDS011;1971;51.778;10.330;2023-08-31T07:45:20;12.70;;;11.07;;
3911;SDS011;1971;51.778;10.330;2023-08-31T07:47:50;12.27;;;11.20;;
3911;SDS011;1971;51.778;10.330;2023-08-31T07:50:21;11.47;;;10.60;;
3911;SDS011;1971;51.778;10.330;2023-08-31T07:52:51;12.90;;;11.90;;
3911;SDS011;1971;51.778;10.330;2023-08-31T07:55:21;11.53;;;10.53;;
3911;SDS011;1971;51.778;10.330;2023-08-31T07:57:52;10.03;;;9.20;;
3911;SDS011;1971;51.778;10.330;2023-08-31T08:00:24;10.30;;;9.50;;
3911;SDS011;1971;51.778;10.330;2023-08-31T08:02:55;9.20;;;8.50;;
3911;SDS011;1971;51.778;10.330;2023-08-31T08:05:25;10.13;;;8.60;;
3911;SDS011;1971;51.778;10.330;2023-08-31T08:07:56;8.87;;;8.17;;
3911;SDS011;1971;51.778;10.330;2023-08-31T08:10:26;8.80;;;7.93;;
3911;SDS011;1971;51.778;10.330;2023-08-31T08:12:57;8.30;;;7.60;;
3911;SDS011;1971;51.778;10.330;2023-08-31T08:15:30;8.00;;;7.40;;
3911;SDS011;1971;51.778;10.330;2023-08-31T08:18:01;7.87;;;7.17;;
3911;SDS011;1971;51.778;10.330;2023-08-31T08:20:31;7.07;;;6.67;;
3911;SDS011;1971;51.778;10.330;2023-08-31T08:23:01;8.17;;;7.33;;
3911;SDS011;1971;51.778;10.330;2023-08-31T08:25:32;7.23;;;6.63;;
3911;SDS011;1971;51.778;10.330;2023-08-31T08:28:03;8.13;;;7.43;;
3911;SDS011;1971;51.778;10.330;2023-08-31T08:30:36;8.60;;;7.90;;
3911;SDS011;1971;51.778;10.330;2023-08-31T08:33:07;7.67;;;7.03;;
3911;SDS011;1971;51.778;10.330;2023-08-31T08:35:38;15.23;;;7.13;;
3911;SDS011;1971;51.778;10.330;2023-08-31T08:38:08;7.50;;;6.90;;
3911;SDS011;1971;51.778;10.330;2023-08-31T08:40:40;9.30;;;7.70;;
3911;SDS011;1971;51.778;10.330;2023-08-31T08:43:10;7.10;;;6.60;;
3911;SDS011;1971;51.778;10.330;2023-08-31T08:45:44;7.40;;;6.70;;
3911;SDS011;1971;51.778;10.330;2023-08-31T08:48:17;6.17;;;5.77;;
3911;SDS011;1971;51.778;10.330;2023-08-31T08:50:48;6.37;;;5.97;;
3911;SDS011;1971;51.778;10.330;2023-08-31T08:53:18;6.00;;;5.60;;
3911;SDS011;1971;51.778;10.330;2023-08-31T08:55:49;5.30;;;4.90;;
3911;SDS011;1971;51.778;10.330;2023-08-31T08:58:19;5.63;;;5.10;;
3911;SDS011;1971;51.778;10.330;2023-08-31T09:00:56;6.30;;;5.80;;
3911;SDS011;1971;51.778;10.330;2023-08-31T09:03:26;5.90;;;5.50;;
3911;SDS011;1971;51.778;10.330;2023-08-31T09:05:58;6.27;;;5.67;;
3911;SDS011;1971;51.778;10.330;2023-08-31T09:08:32;6.33;;;5.83;;
3911;SDS011;1971;51.778;10.330;2023-08-31T09:11:03;7.17;;;5.70;;
3911;SDS011;1971;51.778;10.330;2023-08-31T09:13:34;5.83;;;5.43;;
3911;SDS011;1971;51.778;10.330;2023-08-31T09:16:07;5.10;;;4.80;;
3911;SDS011;1971;51.778;10.330;2023-08-31T09:18:53;5.20;;;4.70;;
3911;SDS011;1971;51.778;10.330;2023-08-31T09:21:23;5.20;;;4.90;;
3911;SDS011;1971;51.778;10.330;2023-08-31T09:24:05;5.93;;;5.40;;
3911;SDS011;1971;51.778;10.330;2023-08-31T09:26:39;4.03;;;3.73;;
3911;SDS011;1971;51.778;10.330;2023-08-31T09:29:12;4.37;;;4.07;;
3911;SDS011;1971;51.778;10.330;2023-08-31T09:31:48;4.20;;;3.90;;
3911;SDS011;1971;51.778;10.330;2023-08-31T09:34:19;4.47;;;4.23;;
3911;SDS011;1971;51.778;10.330;2023-08-31T09:36:49;4.10;;;3.70;;
3911;SDS011;1971;51.778;10.330;2023-08-31T09:39:19;3.70;;;3.40;;
3911;SDS011;1971;51.778;10.330;2023-08-31T09:41:52;4.10;;;3.57;;
3911;SDS011;1971;51.778;10.330;2023-08-31T09:44:23;3.63;;;3.33;;
3911;SDS011;1971;51.778;10.330;2023-08-31T09:46:56;3.50;;;3.20;;
3911;SDS011;1971;51.778;10.330;2023-08-31T09:49:27;3.17;;;2.97;;
3911;SDS011;1971;51.778;10.330;2023-08-31T09:51:58;3.67;;;3.33;;
3911;SDS011;1971;51.778;10.330;2023-08-31T09:54:33;3.30;;;3.10;;
3911;SDS011;1971;51.778;10.330;2023-08-31T09:57:04;2.83;;;2.63;;
3911;SDS011;1971;51.778;10.330;2023-08-31T09:59:35;2.50;;;2.37;;
3911;SDS011;1971;51.778;10.330;2023-08-31T10:02:11;2.97;;;2.77;;
3911;SDS011;1971;51.778;10.330;2023-08-31T10:04:45;2.83;;;2.63;;
3911;SDS011;1971;51.778;10.330;2023-08-31T10:07:19;2.63;;;2.30;;
3911;SDS011;1971;51.778;10.330;2023-08-31T10:09:50;2.30;;;2.20;;
3911;SDS011;1971;51.778;10.330;2023-08-31T10:12:21;2.50;;;2.30;;
3911;SDS011;1971;51.778;10.330;2023-08-31T10:14:52;2.70;;;2.50;;
3911;SDS011;1971;51.778;10.330;2023-08-31T10:17:26;2.30;;;2.20;;
3911;SDS011;1971;51.778;10.330;2023-08-31T10:19:58;2.57;;;2.37;;
3911;SDS011;1971;51.778;10.330;2023-08-31T10:22:29;2.47;;;2.33;;
3911;SDS011;1971;51.778;10.330;2023-08-31T10:25:02;2.83;;;2.63;;
3911;SDS011;1971;51.778;10.330;2023-08-31T10:27:37;2.10;;;2.00;;
3911;SDS011;1971;51.778;10.330;2023-08-31T10:30:20;1.97;;;1.87;;
3911;SDS011;1971;51.778;10.330;2023-08-31T10:33:05;2.40;;;2.20;;
3911;SDS011;1971;51.778;10.330;2023-08-31T10:35:51;2.17;;;2.03;;
3911;SDS011;1971;51.778;10.330;2023-08-31T10:38:23;2.07;;;1.90;;
3911;SDS011;1971;51.778;10.330;2023-08-31T10:41:02;1.90;;;1.80;;
3911;SDS011;1971;51.778;10.330;2023-08-31T10:43:49;3.07;;;1.80;;
3911;SDS011;1971;51.778;10.330;2023-08-31T10:46:27;2.67;;;2.40;;
3911;SDS011;1971;51.778;10.330;2023-08-31T10:49:01;2.90;;;2.53;;
3911;SDS011;1971;51.778;10.330;2023-08-31T10:51:44;2.80;;;2.60;;
3911;SDS011;1971;51.778;10.330;2023-08-31T10:54:19;2.40;;;2.20;;
3911;SDS011;1971;51.778;10.330;2023-08-31T10:56:51;4.00;;;2.80;;
3911;SDS011;1971;51.778;10.330;2023-08-31T10:59:41;3.17;;;2.97;;
3911;SDS011;1971;51.778;10.330;2023-08-31T11:05:11;2.83;;;2.63;;
3911;SDS011;1971;51.778;10.330;2023-08-31T11:07:42;5.60;;;2.60;;
3911;SDS011;1971;51.778;10.330;2023-08-31T11:10:15;2.97;;;2.77;;
3911;SDS011;1971;51.778;10.330;2023-08-31T11:12:47;3.50;;;3.20;;
3911;SDS011;1971;51.778;10.330;2023-08-31T11:15:19;3.13;;;2.57;;
3911;SDS011;1971;51.778;10.330;2023-08-31T11:17:51;2.90;;;2.70;;
3911;SDS011;1971;51.778;10.330;2023-08-31T11:20:26;3.20;;;3.00;;
3911;SDS011;1971;51.778;10.330;2023-08-31T11:22:57;3.70;;;3.50;;
3911;SDS011;1971;51.778;10.330;2023-08-31T11:25:30;3.63;;;2.70;;
3911;SDS011;1971;51.778;10.330;2023-08-31T11:28:01;3.50;;;3.20;;
3911;SDS011;1971;51.778;10.330;2023-08-31T11:30:32;3.20;;;3.00;;
3911;SDS011;1971;51.778;10.330;2023-08-31T11:33:03;3.53;;;3.23;;
3911;SDS011;1971;51.778;10.330;2023-08-31T11:35:39;3.10;;;2.90;;
3911;SDS011;1971;51.778;10.330;2023-08-31T11:38:12;6.60;;;3.07;;
3911;SDS011;1971;51.778;10.330;2023-08-31T11:40:43;3.17;;;2.97;;
3911;SDS011;1971;51.778;10.330;2023-08-31T11:43:14;2.50;;;2.30;;
3911;SDS011;1971;51.778;10.330;2023-08-31T11:45:46;4.13;;;2.30;;
3911;SDS011;1971;51.778;10.330;2023-08-31T11:48:17;2.10;;;2.00;;
3911;SDS011;1971;51.778;10.330;2023-08-31T11:50:50;2.40;;;2.20;;
3911;SDS011;1971;51.778;10.330;2023-08-31T11:53:20;2.30;;;2.20;;
3911;SDS011;1971;51.778;10.330;2023-08-31T11:55:50;2.47;;;2.30;;
3911;SDS011;1971;51.778;10.330;2023-08-31T11:58:21;2.03;;;1.93;;
3911;SDS011;1971;51.778;10.330;2023-08-31T12:00:55;2.13;;;2.03;;
3911;SDS011;1971;51.778;10.330;2023-08-31T12:03:26;2.83;;;2.30;;
3911;SDS011;1971;51.778;10.330;2023-08-31T12:06:18;2.20;;;2.10;;
3911;SDS011;1971;51.778;10.330;2023-08-31T12:08:48;2.07;;;1.97;;
3911;SDS011;1971;51.778;10.330;2023-08-31T12:11:18;3.17;;;2.00;;
3911;SDS011;1971;51.778;10.330;2023-08-31T12:13:50;5.40;;;1.80;;
3911;SDS011;1971;51.778;10.330;2023-08-31T12:16:20;2.10;;;1.90;;
3911;SDS011;1971;51.778;10.330;2023-08-31T12:18:50;2.23;;;2.10;;
3911;SDS011;1971;51.778;10.330;2023-08-31T12:21:23;2.07;;;1.97;;
3911;SDS011;1971;51.778;10.330;2023-08-31T12:23:53;2.20;;;2.10;;
3911;SDS011;1971;51.778;10.330;2023-08-31T12:26:24;1.97;;;1.87;;
3911;SDS011;1971;51.778;10.330;2023-08-31T12:28:54;2.77;;;2.30;;
3911;SDS011;1971;51.778;10.330;2023-08-31T12:31:25;2.30;;;2.20;;
3911;SDS011;1971;51.778;10.330;2023-08-31T12:33:55;2.97;;;2.53;;
3911;SDS011;1971;51.778;10.330;2023-08-31T12:36:28;2.10;;;2.00;;
3911;SDS011;1971;51.778;10.330;2023-08-31T12:38:58;2.60;;;2.50;;
3911;SDS011;1971;51.778;10.330;2023-08-31T12:41:33;4.70;;;2.70;;
3911;SDS011;1971;51.778;10.330;2023-08-31T12:44:03;2.30;;;2.17;;
3911;SDS011;1971;51.778;10.330;2023-08-31T12:46:34;2.80;;;2.53;;
3911;SDS011;1971;51.778;10.330;2023-08-31T12:49:05;2.57;;;2.27;;
3911;SDS011;1971;51.778;10.330;2023-08-31T12:51:38;2.60;;;2.40;;
3911;SDS011;1971;51.778;10.330;2023-08-31T12:54:08;2.50;;;2.30;;
3911;SDS011;1971;51.778;10.330;2023-08-31T12:56:40;2.87;;;2.57;;
3911;SDS011;1971;51.778;10.330;2023-08-31T12:59:10;5.23;;;3.70;;
3911;SDS011;1971;51.778;10.330;2023-08-31T13:01:40;1.70;;;1.43;;
3911;SDS011;1971;51.778;10.330;2023-08-31T13:04:11;1.47;;;1.37;;
3911;SDS011;1971;51.778;10.330;2023-08-31T13:06:44;1.70;;;1.60;;
3911;SDS011;1971;51.778;10.330;2023-08-31T13:09:14;1.13;;;1.13;;
3911;SDS011;1971;51.778;10.330;2023-08-31T13:11:45;1.10;;;1.00;;
3911;SDS011;1971;51.778;10.330;2023-08-31T13:14:16;1.73;;;1.60;;
3911;SDS011;1971;51.778;10.330;2023-08-31T13:16:46;1.30;;;1.20;;
3911;SDS011;1971;51.778;10.330;2023-08-31T13:19:16;1.20;;;1.10;;
3911;SDS011;1971;51.778;10.330;2023-08-31T13:21:49;1.27;;;1.17;;
3911;SDS011;1971;51.778;10.330;2023-08-31T13:24:20;1.40;;;1.30;;
3911;SDS011;1971;51.778;10.330;2023-08-31T13:26:50;1.20;;;1.13;;
3911;SDS011;1971;51.778;10.330;2023-08-31T13:29:20;1.30;;;1.10;;
3911;SDS011;1971;51.778;10.330;2023-08-31T13:31:50;1.70;;;1.60;;
3911;SDS011;1971;51.778;10.330;2023-08-31T13:34:20;1.50;;;1.40;;
3911;SDS011;1971;51.778;10.330;2023-08-31T13:36:53;1.70;;;1.60;;
3911;SDS011;1971;51.778;10.330;2023-08-31T13:39:23;1.63;;;1.53;;
3911;SDS011;1971;51.778;10.330;2023-08-31T13:41:55;2.00;;;1.80;;
3911;SDS011;1971;51.778;10.330;2023-08-31T13:44:25;2.70;;;1.93;;
3911;SDS011;1971;51.778;10.330;2023-08-31T13:46:55;2.03;;;1.93;;
3911;SDS011;1971;51.778;10.330;2023-08-31T13:49:25;2.63;;;2.43;;
3911;SDS011;1971;51.778;10.330;2023-08-31T13:51:58;2.93;;;2.60;;
3911;SDS011;1971;51.778;10.330;2023-08-31T13:54:30;2.40;;;2.20;;
3911;SDS011;1971;51.778;10.330;2023-08-31T13:57:01;2.13;;;1.87;;
3911;SDS011;1971;51.778;10.330;2023-08-31T13:59:31;2.90;;;2.70;;
3911;SDS011;1971;51.778;10.330;2023-08-31T14:02:01;2.23;;;2.10;;
3911;SDS011;1971;51.778;10.330;2023-08-31T14:04:31;2.57;;;2.27;;
3911;SDS011;1971;51.778;10.330;2023-08-31T14:07:04;2.43;;;2.10;;
3911;SDS011;1971;51.778;10.330;2023-08-31T14:09:34;1.80;;;1.70;;
3911;SDS011;1971;51.778;10.330;2023-08-31T14:12:05;1.93;;;1.83;;
3911;SDS011;1971;51.778;10.330;2023-08-31T14:14:35;1.60;;;1.50;;
3911;SDS011;1971;51.778;10.330;2023-08-31T14:17:07;2.40;;;2.20;;
3911;SDS011;1971;51.778;10.330;2023-08-31T14:19:38;2.20;;;2.10;;
3911;SDS011;1971;51.778;10.330;2023-08-31T14:22:10;1.87;;;1.77;;
3911;SDS011;1971;51.778;10.330;2023-08-31T14:24:41;4.07;;;2.10;;
3911;SDS011;1971;51.778;10.330;2023-08-31T14:27:13;2.20;;;1.90;;
3911;SDS011;1971;51.778;10.330;2023-08-31T14:29:43;2.20;;;1.90;;
3911;SDS011;1971;51.778;10.330;2023-08-31T14:32:13;3.03;;;2.07;;
3911;SDS011;1971;51.778;10.330;2023-08-31T14:34:44;2.80;;;2.60;;
3911;SDS011;1971;51.778;10.330;2023-08-31T14:37:17;2.43;;;2.23;;
3911;SDS011;1971;51.778;10.330;2023-08-31T14:39:47;2.30;;;2.10;;
3911;SDS011;1971;51.778;10.330;2023-08-31T14:42:17;1.83;;;1.73;;
3911;SDS011;1971;51.778;10.330;2023-08-31T14:44:48;1.93;;;1.83;;
3911;SDS011;1971;51.778;10.330;2023-08-31T14:47:18;3.10;;;2.57;;
3911;SDS011;1971;51.778;10.330;2023-08-31T14:49:49;2.43;;;2.33;;
3911;SDS011;1971;51.778;10.330;2023-08-31T14:52:21;2.57;;;2.37;;
3911;SDS011;1971;51.778;10.330;2023-08-31T14:54:52;2.23;;;1.83;;
3911;SDS011;1971;51.778;10.330;2023-08-31T14:57:22;3.90;;;2.43;;
3911;SDS011;1971;51.778;10.330;2023-08-31T14:59:53;3.13;;;2.10;;
3911;SDS011;1971;51.778;10.330;2023-08-31T15:02:29;2.50;;;2.30;;
3911;SDS011;1971;51.778;10.330;2023-08-31T15:05:00;1.93;;;1.83;;
3911;SDS011;1971;51.778;10.330;2023-08-31T15:07:32;2.43;;;1.60;;
3911;SDS011;1971;51.778;10.330;2023-08-31T15:10:03;2.00;;;1.90;;
3911;SDS011;1971;51.778;10.330;2023-08-31T15:12:34;3.30;;;1.97;;
3911;SDS011;1971;51.778;10.330;2023-08-31T15:15:04;3.00;;;2.60;;
3911;SDS011;1971;51.778;10.330;2023-08-31T15:17:36;2.33;;;2.17;;
3911;SDS011;1971;51.778;10.330;2023-08-31T15:20:07;5.53;;;2.53;;
3911;SDS011;1971;51.778;10.330;2023-08-31T15:22:41;2.27;;;2.17;;